Time;durP1;ratioP1;P1;durP2;ratioP2;P2;SDS_P1;SDS_P2;PMS_P1;PMS_P2;Temp;Humidity;BMP_temperature;BMP_pressure;BME280_temperature;BME280_humidity;BME280_pressure;Samples;Min_cycle;Max_cycle;Signal;HPM_P1;HPM_P2
2023/05/07 00:00:18;;;;;;;10.73;8.30;;;17.40;99.90;;;;;;4948982;29;20031;-78
2023/05/07 00:02:45;;;;;;;12.32;8.52;;;17.40;99.90;;;;;;4954174;29;20035;-79
2023/05/07 00:05:10;;;;;;;11.18;9.02;;;17.40;99.90;;;;;;4944899;29;20078;-78
2023/05/07 00:07:37;;;;;;;13.63;9.43;;;17.30;99.90;;;;;;4939920;29;20489;-79
2023/05/07 00:10:06;;;;;;;10.05;7.45;;;17.30;99.90;;;;;;4939812;29;20024;-79
2023/05/07 00:12:33;;;;;;;10.52;8.23;;;17.20;99.90;;;;;;4949645;29;20042;-79
2023/05/07 00:15:04;;;;;;;9.43;7.40;;;17.20;99.90;;;;;;4966347;29;20030;-78
2023/05/07 00:17:30;;;;;;;12.18;8.57;;;17.20;99.90;;;;;;4960277;29;20028;-78
2023/05/07 00:19:56;;;;;;;10.68;8.75;;;17.20;99.90;;;;;;4957457;29;20063;-78
2023/05/07 00:22:23;;;;;;;10.65;8.48;;;17.20;99.90;;;;;;4955389;29;20051;-79
2023/05/07 00:24:49;;;;;;;12.60;8.73;;;17.20;99.90;;;;;;4953948;29;20490;-78
2023/05/07 00:27:23;;;;;;;12.40;9.13;;;17.20;99.90;;;;;;4948454;29;20023;-80
2023/05/07 00:29:49;;;;;;;10.38;9.27;;;17.20;99.90;;;;;;4951608;29;20109;-79
2023/05/07 00:32:18;;;;;;;10.52;8.43;;;17.30;99.90;;;;;;4953837;29;20042;-81
2023/05/07 00:34:44;;;;;;;12.85;8.85;;;17.20;99.90;;;;;;4970521;28;20039;-78
2023/05/07 00:37:19;;;;;;;12.05;9.70;;;17.20;99.90;;;;;;4954957;29;20099;-78
2023/05/07 00:39:48;;;;;;;13.05;9.63;;;17.20;99.90;;;;;;4975863;28;20023;-79
2023/05/07 00:42:20;;;;;;;12.73;10.23;;;17.10;99.90;;;;;;4977916;28;20023;-80
2023/05/07 00:44:46;;;;;;;11.18;9.35;;;17.10;99.90;;;;;;4978750;28;20015;-81
2023/05/07 00:47:12;;;;;;;15.85;10.52;;;17.10;99.90;;;;;;4983259;28;20049;-80
2023/05/07 00:49:41;;;;;;;13.88;10.02;;;17.10;99.90;;;;;;4967816;28;20026;-78
2023/05/07 00:52:09;;;;;;;11.43;9.88;;;17.10;99.90;;;;;;4976191;28;20026;-79
2023/05/07 00:54:35;;;;;;;14.70;10.73;;;17.10;99.90;;;;;;4971504;28;20022;-79
2023/05/07 00:57:03;;;;;;;13.77;10.93;;;17.10;99.90;;;;;;4949337;28;20031;-79
2023/05/07 00:59:28;;;;;;;13.93;10.75;;;17.10;99.90;;;;;;4958714;28;20482;-79
2023/05/07 01:01:54;;;;;;;16.10;11.35;;;17.00;99.90;;;;;;4976872;28;20046;-80
2023/05/07 01:04:20;;;;;;;16.92;12.73;;;17.00;99.90;;;;;;4977179;28;20073;-79
2023/05/07 01:06:46;;;;;;;14.32;11.20;;;17.00;99.90;;;;;;4978687;28;20019;-79
2023/05/07 01:09:12;;;;;;;13.95;11.20;;;17.00;99.90;;;;;;4970679;28;20385;-80
2023/05/07 01:11:39;;;;;;;12.32;10.60;;;16.90;99.90;;;;;;4973027;28;20031;-79
2023/05/07 01:14:06;;;;;;;15.27;10.38;;;17.00;99.90;;;;;;4965421;28;20027;-80
2023/05/07 01:16:32;;;;;;;16.02;12.68;;;16.90;99.90;;;;;;4950915;28;20031;-78
2023/05/07 01:18:58;;;;;;;15.27;11.95;;;16.90;99.90;;;;;;4966934;28;20086;-79
2023/05/07 01:21:26;;;;;;;13.38;11.60;;;16.90;99.90;;;;;;4961110;28;20022;-79
2023/05/07 01:23:52;;;;;;;16.83;13.32;;;16.80;99.90;;;;;;4960031;28;20019;-79
2023/05/07 01:26:19;;;;;;;15.75;12.05;;;16.80;99.90;;;;;;4959953;28;20058;-79
2023/05/07 01:28:45;;;;;;;15.75;12.88;;;16.80;99.90;;;;;;4970706;28;20023;-81
2023/05/07 01:31:13;;;;;;;16.23;13.50;;;16.80;99.90;;;;;;4961557;28;20024;-79
2023/05/07 01:33:41;;;;;;;20.00;15.73;;;16.80;99.90;;;;;;4969422;28;20049;-78
2023/05/07 01:36:08;;;;;;;18.05;14.00;;;16.80;99.90;;;;;;4973291;28;20023;-78
2023/05/07 01:38:36;;;;;;;17.55;14.27;;;16.80;99.90;;;;;;4970638;28;20042;-79
2023/05/07 01:41:02;;;;;;;15.77;13.60;;;16.80;99.90;;;;;;4974478;28;20429;-78
2023/05/07 01:43:30;;;;;;;15.32;13.65;;;16.80;99.90;;;;;;4974201;28;20721;-79
2023/05/07 01:45:57;;;;;;;17.63;15.75;;;16.80;99.90;;;;;;4958490;28;20038;-79
2023/05/07 01:48:24;;;;;;;17.98;15.27;;;16.80;99.90;;;;;;4968966;28;20062;-78
2023/05/07 01:50:50;;;;;;;19.42;14.95;;;16.80;99.90;;;;;;4956190;28;20082;-79
2023/05/07 01:53:16;;;;;;;19.90;15.32;;;16.80;99.90;;;;;;4965064;28;20027;-78
2023/05/07 01:55:42;;;;;;;21.05;16.25;;;16.80;99.90;;;;;;4958930;28;20389;-78
2023/05/07 01:58:07;;;;;;;19.48;16.88;;;16.80;99.90;;;;;;4962746;28;20039;-78
2023/05/07 02:00:33;;;;;;;21.77;17.23;;;16.80;99.90;;;;;;4949332;28;20241;-79
2023/05/07 02:02:59;;;;;;;16.80;15.00;;;16.80;99.90;;;;;;4950331;28;20029;-77
2023/05/07 02:05:24;;;;;;;17.08;14.95;;;16.80;99.90;;;;;;4951312;28;20058;-78
2023/05/07 02:07:50;;;;;;;17.67;14.55;;;16.80;99.90;;;;;;4961722;28;20031;-80
2023/05/07 02:10:16;;;;;;;18.35;16.42;;;16.80;99.90;;;;;;4955487;28;20030;-78
2023/05/07 02:12:42;;;;;;;17.63;15.50;;;16.80;99.90;;;;;;4945917;28;20027;-79
2023/05/07 02:15:08;;;;;;;18.30;16.35;;;16.80;99.90;;;;;;4975431;28;20046;-79
2023/05/07 02:17:35;;;;;;;16.45;14.75;;;16.80;99.90;;;;;;4942291;28;20046;-79
2023/05/07 02:20:01;;;;;;;19.05;15.30;;;16.80;99.90;;;;;;4968165;28;20019;-79
2023/05/07 02:22:26;;;;;;;17.45;15.63;;;16.80;99.90;;;;;;4966307;29;20029;-79
2023/05/07 02:24:52;;;;;;;18.95;15.75;;;16.80;99.90;;;;;;4982132;28;20058;-79
2023/05/07 02:27:18;;;;;;;19.42;15.85;;;16.80;99.90;;;;;;4966639;29;20050;-80
2023/05/07 02:29:43;;;;;;;18.25;16.35;;;16.80;99.90;;;;;;4983619;28;20077;-79
2023/05/07 02:32:09;;;;;;;19.15;16.02;;;16.90;99.90;;;;;;4991274;28;20023;-79
2023/05/07 02:34:34;;;;;;;14.50;12.93;;;16.90;99.90;;;;;;4983084;28;20053;-79
2023/05/07 02:37:00;;;;;;;20.17;18.02;;;16.90;99.90;;;;;;4977331;28;20034;-79
2023/05/07 02:39:26;;;;;;;23.45;16.52;;;16.80;99.90;;;;;;4954812;28;20038;-79
2023/05/07 02:41:51;;;;;;;19.35;16.05;;;16.80;99.90;;;;;;4957856;28;20181;-78
2023/05/07 02:44:17;;;;;;;19.23;16.40;;;16.80;99.90;;;;;;4954834;28;20025;-78
2023/05/07 02:46:42;;;;;;;20.20;17.83;;;16.90;99.90;;;;;;4980396;28;20054;-80
2023/05/07 02:49:08;;;;;;;20.02;15.45;;;16.90;99.90;;;;;;4974252;28;20034;-79
2023/05/07 02:51:33;;;;;;;19.65;15.75;;;16.90;99.90;;;;;;4978525;28;20040;-81
2023/05/07 02:54:00;;;;;;;18.23;15.65;;;16.90;99.90;;;;;;4969222;28;20023;-81
2023/05/07 02:56:26;;;;;;;17.65;14.68;;;16.90;99.90;;;;;;4963393;28;20027;-81
2023/05/07 02:58:52;;;;;;;14.50;12.75;;;16.80;99.90;;;;;;4959085;28;20042;-80
2023/05/07 03:01:17;;;;;;;17.70;13.82;;;16.80;99.90;;;;;;4969068;28;20023;-79
2023/05/07 03:03:44;;;;;;;17.52;14.05;;;16.80;99.90;;;;;;4965383;28;20026;-80
2023/05/07 03:06:10;;;;;;;18.42;13.30;;;16.80;99.90;;;;;;4972657;28;20023;-80
2023/05/07 03:08:36;;;;;;;17.23;14.30;;;16.80;99.90;;;;;;4963984;28;20031;-80
2023/05/07 03:11:04;;;;;;;16.05;12.68;;;16.80;99.90;;;;;;4981934;28;20022;-80
2023/05/07 03:13:30;;;;;;;14.52;12.10;;;16.70;99.90;;;;;;4977527;28;20015;-78
2023/05/07 03:15:55;;;;;;;18.75;13.90;;;16.80;99.90;;;;;;4975338;28;20536;-80
2023/05/07 03:18:21;;;;;;;17.02;13.85;;;16.80;99.90;;;;;;4972589;28;20039;-79
2023/05/07 03:20:47;;;;;;;17.17;13.80;;;16.70;99.90;;;;;;4967320;28;20046;-78
2023/05/07 03:23:13;;;;;;;15.10;12.07;;;16.70;99.90;;;;;;4972970;28;20027;-79
2023/05/07 03:25:39;;;;;;;19.58;13.65;;;16.70;99.90;;;;;;4969632;28;20161;-78
2023/05/07 03:28:05;;;;;;;16.10;13.82;;;16.60;99.90;;;;;;4970131;28;20062;-79
2023/05/07 03:30:30;;;;;;;15.85;12.75;;;16.60;99.80;;;;;;4956580;28;20027;-78
2023/05/07 03:32:56;;;;;;;19.67;15.98;;;16.50;99.90;;;;;;4944151;28;20123;-79
2023/05/07 03:35:22;;;;;;;16.83;13.77;;;16.50;99.90;;;;;;4972233;28;20082;-79
2023/05/07 03:37:47;;;;;;;17.67;13.43;;;16.40;99.90;;;;;;4962060;28;20023;-79
2023/05/07 03:40:13;;;;;;;18.75;14.93;;;16.40;99.90;;;;;;4951600;28;20077;-77
2023/05/07 03:42:39;;;;;;;21.00;16.00;;;16.40;99.90;;;;;;4959644;28;20033;-78
2023/05/07 03:45:05;;;;;;;21.23;15.63;;;16.40;99.90;;;;;;4951284;28;20030;-79
2023/05/07 03:47:31;;;;;;;17.25;12.80;;;16.40;99.90;;;;;;4965517;28;20724;-79
2023/05/07 03:49:57;;;;;;;18.50;14.60;;;16.40;99.90;;;;;;4951887;28;20027;-79
2023/05/07 03:52:25;;;;;;;14.52;12.75;;;16.40;99.90;;;;;;4966878;28;20027;-79
2023/05/07 03:54:52;;;;;;;16.40;14.48;;;16.40;99.90;;;;;;4971450;28;20500;-78
2023/05/07 03:57:18;;;;;;;18.65;15.98;;;16.30;99.90;;;;;;4972797;28;20024;-78
2023/05/07 03:59:45;;;;;;;17.85;15.95;;;16.30;99.90;;;;;;4981146;28;20112;-78
2023/05/07 04:02:10;;;;;;;24.35;18.00;;;16.30;99.90;;;;;;4957802;28;20022;-79
2023/05/07 04:04:36;;;;;;;17.13;14.43;;;16.30;99.90;;;;;;4959341;28;20097;-79
2023/05/07 04:07:01;;;;;;;18.13;16.10;;;16.30;99.90;;;;;;4983899;28;20047;-79
2023/05/07 04:09:27;;;;;;;23.00;18.75;;;16.30;99.90;;;;;;4970646;28;20062;-78
2023/05/07 04:11:53;;;;;;;19.15;14.85;;;16.20;99.90;;;;;;4969160;28;20033;-80
2023/05/07 04:14:18;;;;;;;21.05;18.85;;;16.30;99.90;;;;;;4961450;29;20023;-78
2023/05/07 04:16:44;;;;;;;20.00;16.65;;;16.30;99.90;;;;;;4967148;28;20043;-77
2023/05/07 04:19:10;;;;;;;20.23;17.88;;;16.30;99.90;;;;;;4950860;28;20039;-77
2023/05/07 04:21:38;;;;;;;22.60;17.00;;;16.30;99.90;;;;;;4957201;28;20027;-77
2023/05/07 04:24:04;;;;;;;24.02;21.10;;;16.20;99.90;;;;;;4966675;28;20077;-78
2023/05/07 04:26:31;;;;;;;16.75;14.90;;;16.30;99.90;;;;;;4955031;28;20404;-78
2023/05/07 04:28:58;;;;;;;21.77;16.98;;;16.20;99.90;;;;;;4962266;28;20047;-77
2023/05/07 04:31:24;;;;;;;25.13;20.70;;;16.20;99.90;;;;;;4969178;28;20062;-78
2023/05/07 04:33:51;;;;;;;23.88;20.08;;;16.20;99.90;;;;;;4943711;29;20450;-78
2023/05/07 04:36:17;;;;;;;21.25;18.92;;;16.20;99.90;;;;;;4967280;28;20038;-79
2023/05/07 04:38:42;;;;;;;22.10;19.77;;;16.20;99.90;;;;;;4966669;28;20489;-78
2023/05/07 04:41:12;;;;;;;23.00;20.58;;;16.30;99.90;;;;;;4964828;28;20031;-78
2023/05/07 04:43:38;;;;;;;18.65;16.75;;;16.30;99.90;;;;;;4973522;28;20097;-79
2023/05/07 04:46:04;;;;;;;20.67;18.48;;;16.30;99.90;;;;;;4973101;28;20805;-79
2023/05/07 04:48:30;;;;;;;15.68;14.00;;;16.30;99.90;;;;;;4959914;28;20031;-79
2023/05/07 04:50:56;;;;;;;21.27;18.15;;;16.20;99.90;;;;;;4967791;28;20460;-78
2023/05/07 04:53:22;;;;;;;23.08;20.63;;;16.20;99.90;;;;;;4960847;28;20026;-79
2023/05/07 04:55:47;;;;;;;23.63;18.70;;;16.20;99.90;;;;;;4968403;28;20039;-79
2023/05/07 04:58:13;;;;;;;23.25;17.98;;;16.20;99.90;;;;;;4956112;28;20039;-78
2023/05/07 05:00:39;;;;;;;23.02;19.95;;;16.20;99.90;;;;;;4959864;28;20031;-78
2023/05/07 05:03:07;;;;;;;22.30;20.08;;;16.20;99.90;;;;;;4961493;28;20023;-78
2023/05/07 05:05:32;;;;;;;17.45;15.00;;;16.20;99.90;;;;;;4970066;28;20058;-78
2023/05/07 05:07:58;;;;;;;23.95;21.33;;;16.10;99.90;;;;;;4967581;28;20050;-80
2023/05/07 05:10:25;;;;;;;23.40;21.00;;;16.10;99.90;;;;;;4965349;28;20051;-79
2023/05/07 05:12:54;;;;;;;22.17;19.77;;;16.10;99.90;;;;;;4969688;28;20035;-79
2023/05/07 05:15:19;;;;;;;19.70;17.60;;;16.10;99.90;;;;;;4977508;28;20548;-80
2023/05/07 05:17:45;;;;;;;20.77;18.70;;;16.10;99.90;;;;;;4967771;28;20045;-79
2023/05/07 05:20:11;;;;;;;19.33;17.30;;;16.10;99.90;;;;;;4983652;28;20033;-80
2023/05/07 05:22:38;;;;;;;25.13;21.55;;;16.10;99.90;;;;;;4986355;28;20035;-79
2023/05/07 05:25:04;;;;;;;24.00;19.70;;;16.10;99.90;;;;;;4983902;28;20067;-79
2023/05/07 05:27:30;;;;;;;17.85;15.20;;;16.10;99.90;;;;;;4967170;28;20087;-79
2023/05/07 05:29:55;;;;;;;26.42;23.10;;;16.10;99.90;;;;;;4980658;28;20026;-78
2023/05/07 05:32:21;;;;;;;26.60;22.30;;;16.10;99.90;;;;;;4975434;28;20536;-79
2023/05/07 05:34:47;;;;;;;24.80;22.23;;;16.10;99.90;;;;;;4967052;28;20077;-79
2023/05/07 05:37:12;;;;;;;23.35;19.88;;;16.10;99.90;;;;;;4972532;28;20065;-78
2023/05/07 05:39:38;;;;;;;27.08;24.15;;;16.10;99.90;;;;;;4972803;28;20041;-78
2023/05/07 05:42:04;;;;;;;19.95;17.95;;;16.20;99.90;;;;;;4975586;28;20022;-77
2023/05/07 05:44:29;;;;;;;23.05;20.67;;;16.20;99.90;;;;;;4970574;28;20067;-79
2023/05/07 05:46:57;;;;;;;23.17;20.67;;;16.20;99.90;;;;;;4962323;28;20098;-78
2023/05/07 05:49:23;;;;;;;25.13;22.52;;;16.20;99.90;;;;;;4950176;28;20035;-79
2023/05/07 05:51:48;;;;;;;21.63;19.23;;;16.20;99.90;;;;;;4971723;28;20078;-79
2023/05/07 05:54:15;;;;;;;20.98;18.40;;;16.20;99.90;;;;;;4966260;28;20038;-78
2023/05/07 05:56:41;;;;;;;22.48;19.55;;;16.30;99.90;;;;;;4971191;28;20038;-79
2023/05/07 05:59:08;;;;;;;19.60;17.45;;;16.30;99.90;;;;;;4970563;28;20039;-79
2023/05/07 06:01:36;;;;;;;11.93;7.45;;;16.30;99.90;;;;;;4966942;28;20245;-79
2023/05/07 06:04:03;;;;;;;17.25;14.35;;;16.30;99.90;;;;;;4967400;28;20389;-79
2023/05/07 06:06:29;;;;;;;21.60;19.38;;;16.40;99.90;;;;;;4972540;28;20030;-78
2023/05/07 06:08:54;;;;;;;21.02;18.90;;;16.40;99.90;;;;;;4976274;28;20023;-77
2023/05/07 06:11:20;;;;;;;15.05;12.48;;;16.40;99.90;;;;;;4949521;28;20157;-79
2023/05/07 06:13:46;;;;;;;18.33;16.33;;;16.40;99.90;;;;;;4977122;28;20029;-79
2023/05/07 06:16:11;;;;;;;11.77;9.00;;;16.40;99.90;;;;;;4986531;28;20050;-78
2023/05/07 06:18:37;;;;;;;15.32;13.68;;;16.40;99.90;;;;;;4978167;28;20035;-78
2023/05/07 06:21:03;;;;;;;23.55;20.77;;;16.40;99.90;;;;;;4979523;28;20023;-78
2023/05/07 06:23:28;;;;;;;21.92;19.60;;;16.40;99.90;;;;;;4976016;28;20526;-78
2023/05/07 06:25:54;;;;;;;10.32;4.85;;;16.50;99.90;;;;;;4973861;28;20031;-79
2023/05/07 06:28:20;;;;;;;19.48;16.10;;;16.50;99.90;;;;;;4964141;28;20556;-79
2023/05/07 06:30:45;;;;;;;13.95;8.45;;;16.60;99.90;;;;;;4957764;28;20045;-79
2023/05/07 06:33:11;;;;;;;17.10;15.02;;;16.60;99.90;;;;;;4976498;28;20022;-78
2023/05/07 06:35:37;;;;;;;8.90;5.65;;;16.70;99.90;;;;;;4975311;28;20097;-78
2023/05/07 06:38:02;;;;;;;16.85;15.10;;;16.70;99.90;;;;;;4975344;28;20105;-77
2023/05/07 06:40:28;;;;;;;15.20;12.05;;;16.70;99.90;;;;;;4974801;28;20101;-80
2023/05/07 06:42:54;;;;;;;20.88;16.65;;;16.80;99.90;;;;;;4969222;28;20110;-77
2023/05/07 06:45:20;;;;;;;20.90;18.80;;;16.80;99.90;;;;;;4975678;28;20058;-79
2023/05/07 06:47:46;;;;;;;18.73;16.73;;;16.80;99.90;;;;;;4962286;28;20066;-78
2023/05/07 06:50:11;;;;;;;12.25;8.23;;;16.80;99.90;;;;;;4957504;28;20054;-78
2023/05/07 06:52:37;;;;;;;19.25;17.20;;;16.90;99.90;;;;;;4974627;28;20446;-79
2023/05/07 06:55:03;;;;;;;21.77;19.58;;;17.00;99.90;;;;;;4968925;28;20106;-79
2023/05/07 06:57:29;;;;;;;23.83;21.15;;;17.00;99.90;;;;;;4946898;28;20019;-78
2023/05/07 06:59:54;;;;;;;21.50;19.30;;;17.00;99.90;;;;;;4976086;28;20051;-78
2023/05/07 07:02:20;;;;;;;22.17;19.98;;;17.00;99.90;;;;;;4958949;28;20026;-78
2023/05/07 07:04:45;;;;;;;22.45;20.10;;;17.00;99.90;;;;;;4975933;28;20094;-80
2023/05/07 07:07:11;;;;;;;22.88;20.58;;;17.00;99.90;;;;;;4958261;28;20086;-77
2023/05/07 07:09:40;;;;;;;16.90;14.02;;;17.10;99.90;;;;;;4972686;28;20030;-77
2023/05/07 07:12:05;;;;;;;17.35;14.18;;;17.10;99.90;;;;;;4955979;28;20059;-78
2023/05/07 07:14:32;;;;;;;12.43;9.85;;;17.10;99.90;;;;;;4970602;28;20152;-79
2023/05/07 07:16:58;;;;;;;16.77;15.02;;;17.10;99.90;;;;;;4973750;28;20068;-78
2023/05/07 07:19:24;;;;;;;25.42;22.73;;;17.20;99.90;;;;;;4953313;29;20134;-79
2023/05/07 07:21:49;;;;;;;25.60;20.88;;;17.30;99.90;;;;;;4957962;29;20026;-79
2023/05/07 07:24:19;;;;;;;24.70;22.08;;;17.20;99.90;;;;;;4971011;28;20022;-78
2023/05/07 07:26:44;;;;;;;19.00;16.25;;;17.20;99.90;;;;;;4973669;28;20121;-79
2023/05/07 07:29:10;;;;;;;17.27;15.45;;;17.20;99.90;;;;;;4967267;28;20405;-79
2023/05/07 07:31:36;;;;;;;25.45;22.85;;;17.20;99.90;;;;;;4959603;28;20029;-78
2023/05/07 07:34:01;;;;;;;24.00;21.35;;;17.30;99.90;;;;;;4974235;28;20055;-78
2023/05/07 07:36:27;;;;;;;18.60;16.67;;;17.30;99.90;;;;;;4976820;28;20465;-79
2023/05/07 07:38:53;;;;;;;12.73;9.38;;;17.40;99.90;;;;;;4967270;28;20106;-78
2023/05/07 07:41:19;;;;;;;24.95;22.30;;;17.50;99.80;;;;;;4973291;28;20034;-77
2023/05/07 07:43:46;;;;;;;22.63;19.25;;;17.60;99.70;;;;;;4950528;28;20019;-79
2023/05/07 07:46:12;;;;;;;19.25;17.00;;;17.60;99.80;;;;;;4972421;28;20053;-80
2023/05/07 07:48:37;;;;;;;21.60;18.20;;;17.70;99.70;;;;;;4970245;28;20108;-76
2023/05/07 07:51:03;;;;;;;24.00;21.50;;;17.70;99.80;;;;;;4963789;28;20033;-78
2023/05/07 07:53:29;;;;;;;20.40;17.52;;;17.70;99.70;;;;;;4967276;28;20015;-78
2023/05/07 07:55:54;;;;;;;24.65;21.17;;;17.70;99.40;;;;;;4966602;28;20065;-77
2023/05/07 07:58:21;;;;;;;21.95;19.60;;;17.70;99.60;;;;;;4966703;28;20023;-78
2023/05/07 08:00:47;;;;;;;19.58;17.27;;;17.80;99.40;;;;;;4968129;28;20035;-77
2023/05/07 08:03:14;;;;;;;24.75;20.27;;;17.80;99.40;;;;;;4964786;28;20651;-78
2023/05/07 08:05:39;;;;;;;20.98;17.70;;;17.80;99.50;;;;;;4968438;28;20565;-77
2023/05/07 08:08:05;;;;;;;16.17;13.80;;;17.90;99.50;;;;;;4966986;28;20512;-78
2023/05/07 08:10:34;;;;;;;20.33;15.27;;;18.00;98.90;;;;;;4950541;28;20027;-79
2023/05/07 08:13:00;;;;;;;23.63;21.08;;;18.10;99.10;;;;;;4969060;28;20115;-79
2023/05/07 08:15:26;;;;;;;25.33;20.73;;;18.10;99.40;;;;;;4965732;28;20027;-78
2023/05/07 08:17:51;;;;;;;20.85;16.23;;;18.30;99.30;;;;;;4963669;28;20409;-78
2023/05/07 08:20:17;;;;;;;21.42;17.10;;;18.40;98.50;;;;;;4967773;28;20486;-77
2023/05/07 08:22:42;;;;;;;15.30;13.32;;;18.40;98.80;;;;;;4967407;28;20023;-78
2023/05/07 08:25:09;;;;;;;23.80;21.25;;;18.40;98.60;;;;;;4968760;28;20046;-79
2023/05/07 08:27:34;;;;;;;17.00;12.75;;;18.40;98.60;;;;;;4969326;28;20027;-79
2023/05/07 08:30:00;;;;;;;13.30;8.05;;;18.40;98.40;;;;;;4965719;28;20796;-78
2023/05/07 08:32:25;;;;;;;14.48;11.60;;;18.50;97.70;;;;;;4969005;28;20053;-77
2023/05/07 08:34:51;;;;;;;12.68;10.00;;;18.60;97.80;;;;;;4969296;28;20083;-79
2023/05/07 08:37:17;;;;;;;10.57;6.00;;;18.70;97.30;;;;;;4968098;28;20026;-77
2023/05/07 08:39:42;;;;;;;17.75;13.90;;;18.80;96.70;;;;;;4970337;28;20030;-78
2023/05/07 08:42:11;;;;;;;18.30;15.88;;;18.90;97.40;;;;;;4969590;28;20019;-78
2023/05/07 08:44:39;;;;;;;19.08;16.77;;;18.90;97.50;;;;;;4967485;28;20034;-79
2023/05/07 08:47:07;;;;;;;18.65;16.52;;;19.00;97.50;;;;;;4967164;28;20401;-77
2023/05/07 08:49:34;;;;;;;22.70;18.83;;;19.00;97.70;;;;;;4969194;28;20049;-78
2023/05/07 08:52:01;;;;;;;15.48;11.57;;;19.10;97.60;;;;;;4967728;28;20030;-79
2023/05/07 08:54:29;;;;;;;21.77;18.25;;;19.20;97.00;;;;;;4970709;28;20758;-77
2023/05/07 08:56:54;;;;;;;19.50;17.45;;;19.20;97.30;;;;;;4972495;28;20061;-77
2023/05/07 08:59:20;;;;;;;18.70;16.17;;;19.20;97.00;;;;;;4951959;28;20506;-78
2023/05/07 09:01:46;;;;;;;20.60;18.02;;;19.20;96.90;;;;;;4955951;28;20022;-80
2023/05/07 09:04:12;;;;;;;19.08;16.98;;;19.10;96.80;;;;;;4969214;28;20023;-78
2023/05/07 09:06:41;;;;;;;15.13;11.48;;;19.10;97.00;;;;;;4949096;28;20419;-78
2023/05/07 09:09:07;;;;;;;16.05;14.00;;;19.10;96.90;;;;;;4972956;28;20497;-78
2023/05/07 09:11:33;;;;;;;19.63;14.75;;;19.20;97.00;;;;;;4974008;28;20645;-78
2023/05/07 09:14:02;;;;;;;23.25;17.10;;;19.30;96.60;;;;;;4972365;28;20022;-77
2023/05/07 09:16:30;;;;;;;19.00;17.00;;;19.40;96.50;;;;;;4971064;28;20026;-79
2023/05/07 09:19:00;;;;;;;17.13;13.32;;;19.30;96.50;;;;;;4959884;28;20042;-77
2023/05/07 09:21:26;;;;;;;20.20;14.90;;;19.30;96.60;;;;;;4953512;29;20117;-77
2023/05/07 09:23:54;;;;;;;16.77;11.27;;;19.40;96.90;;;;;;4958161;28;20540;-78
2023/05/07 09:26:22;;;;;;;13.93;11.60;;;19.50;96.70;;;;;;4972449;28;20026;-77
2023/05/07 09:28:47;;;;;;;15.18;11.43;;;19.60;96.80;;;;;;4968901;28;20038;-76
2023/05/07 09:31:13;;;;;;;14.73;11.80;;;19.70;96.80;;;;;;4963171;28;20405;-77
2023/05/07 09:33:39;;;;;;;15.52;12.30;;;19.90;97.00;;;;;;4968801;28;20014;-78
2023/05/07 09:36:07;;;;;;;18.52;13.77;;;20.10;96.40;;;;;;4962952;28;20609;-77
2023/05/07 09:38:33;;;;;;;17.65;14.38;;;20.30;96.20;;;;;;4947506;28;20050;-77
2023/05/07 09:41:07;;;;;;;17.45;13.52;;;20.50;95.50;;;;;;4972014;28;20034;-77
2023/05/07 09:43:37;;;;;;;14.13;11.13;;;20.50;95.60;;;;;;4964920;28;20027;-78
2023/05/07 09:46:06;;;;;;;9.32;7.30;;;20.60;95.20;;;;;;4961345;28;20031;-77
2023/05/07 09:48:36;;;;;;;17.97;14.97;;;20.80;95.10;;;;;;4943008;28;20042;-78
2023/05/07 09:51:02;;;;;;;;;;;21.00;95.20;;;;;;4972733;28;20023;-78
2023/05/07 09:53:30;;;;;;;15.15;11.63;;;21.10;93.80;;;;;;4958519;28;19996;-78
2023/05/07 09:55:58;;;;;;;17.63;14.15;;;21.20;93.40;;;;;;4972678;28;20166;-76
2023/05/07 09:58:25;;;;;;;8.80;6.03;;;21.10;93.60;;;;;;4957440;28;20065;-77
2023/05/07 10:00:52;;;;;;;16.13;12.70;;;21.10;93.80;;;;;;4967419;28;20029;-77
2023/05/07 10:03:19;;;;;;;16.95;13.38;;;21.30;93.50;;;;;;4965555;28;20030;-77
2023/05/07 10:05:47;;;;;;;14.88;10.13;;;21.30;93.00;;;;;;4960210;28;20019;-79
2023/05/07 10:08:13;;;;;;;14.45;10.43;;;21.50;92.80;;;;;;4953148;28;20027;-77
2023/05/07 10:10:40;;;;;;;8.70;5.22;;;21.50;92.80;;;;;;4971671;28;20026;-76
2023/05/07 10:13:10;;;;;;;17.58;14.30;;;21.70;92.80;;;;;;4959174;28;20032;-79
2023/05/07 10:15:36;;;;;;;;;;;21.70;92.20;;;;;;4972290;28;20019;-77
2023/05/07 10:18:03;;;;;;;16.30;13.00;;;21.70;91.90;;;;;;4970972;28;19914;-77
2023/05/07 10:20:29;;;;;;;8.43;6.82;;;21.70;92.30;;;;;;4968458;28;20085;-76
2023/05/07 10:22:57;;;;;;;15.32;11.02;;;21.80;92.70;;;;;;4965172;28;20027;-76
2023/05/07 10:25:29;;;;;;;12.65;10.43;;;22.00;92.50;;;;;;4957821;28;20433;-76
2023/05/07 10:27:59;;;;;;;11.63;8.27;;;22.10;91.90;;;;;;4957439;28;20031;-77
2023/05/07 10:30:53;;;;;;;14.63;12.13;;;22.10;92.10;;;;;;4962444;28;20019;-78
2023/05/07 10:33:25;;;;;;;8.48;5.82;;;22.20;91.60;;;;;;4959994;28;20046;-76
2023/05/07 10:35:51;;;;;;;17.15;14.65;;;22.40;91.90;;;;;;4970394;28;20054;-75
2023/05/07 10:38:17;;;;;;;13.15;9.98;;;22.60;91.40;;;;;;4965881;28;20061;-75
2023/05/07 10:40:43;;;;;;;8.52;6.22;;;22.80;91.40;;;;;;4951542;28;20030;-76
2023/05/07 10:43:10;;;;;;;8.98;5.13;;;23.20;91.40;;;;;;4967812;28;20038;-74
2023/05/07 10:45:35;;;;;;;15.20;13.50;;;23.50;91.20;;;;;;4966731;28;20029;-76
2023/05/07 10:48:16;;;;;;;15.93;13.52;;;23.70;88.10;;;;;;4965882;28;20381;-77
2023/05/07 10:50:44;;;;;;;11.85;7.75;;;23.80;88.70;;;;;;4966909;28;20484;-74
2023/05/07 10:53:18;;;;;;;8.25;5.68;;;23.90;89.20;;;;;;4970102;28;20054;-77
2023/05/07 10:55:48;;;;;;;7.63;4.20;;;24.20;90.20;;;;;;4966359;28;20023;-74
2023/05/07 10:58:27;;;;;;;16.58;13.13;;;24.40;90.00;;;;;;4966620;28;20508;-76
2023/05/07 11:01:02;;;;;;;9.57;8.00;;;24.50;85.70;;;;;;4968767;28;20022;-76
2023/05/07 11:03:28;;;;;;;12.98;10.93;;;24.50;87.10;;;;;;4952022;28;20018;-74
2023/05/07 11:06:14;;;;;;;10.23;6.63;;;24.60;86.80;;;;;;4964808;28;20042;-75
2023/05/07 11:08:58;;;;;;;9.00;5.22;;;24.70;87.30;;;;;;4958089;28;20611;-75
2023/05/07 11:11:57;;;;;;;12.88;8.05;;;24.90;88.60;;;;;;4956882;28;20031;-77
2023/05/07 11:14:42;;;;;;;6.65;5.20;;;25.00;85.80;;;;;;4913949;28;20042;-76
2023/05/07 11:17:08;;;;;;;10.52;7.28;;;24.90;88.10;;;;;;4966765;28;20045;-76
2023/05/07 11:19:56;;;;;;;9.70;6.97;;;24.80;86.80;;;;;;4960052;28;20049;-77
2023/05/07 11:22:31;;;;;;;11.38;9.65;;;24.70;84.40;;;;;;4961495;28;20493;-76
2023/05/07 11:24:59;;;;;;;17.80;12.45;;;24.60;85.20;;;;;;4957974;28;20027;-77
2023/05/07 11:27:26;;;;;;;11.50;9.43;;;24.60;82.00;;;;;;4957492;28;20023;-75
2023/05/07 11:29:52;;;;;;;11.90;6.13;;;24.50;82.50;;;;;;4955812;28;20548;-76
2023/05/07 11:32:31;;;;;;;9.40;4.82;;;24.30;85.50;;;;;;4965013;28;20023;-76
2023/05/07 11:34:59;;;;;;;13.75;11.98;;;24.30;87.10;;;;;;4958077;28;20058;-77
2023/05/07 11:37:27;;;;;;;8.23;4.60;;;24.30;85.90;;;;;;4968643;28;20025;-76
2023/05/07 11:40:03;;;;;;;9.90;4.60;;;24.40;89.30;;;;;;4970426;28;20445;-76
2023/05/07 11:42:37;;;;;;;11.90;8.35;;;24.30;88.70;;;;;;4968753;28;20019;-75
2023/05/07 11:45:04;;;;;;;9.63;7.80;;;24.40;86.40;;;;;;4962280;28;20085;-76
2023/05/07 11:47:33;;;;;;;12.13;10.63;;;24.40;86.50;;;;;;4960098;28;20114;-77
2023/05/07 11:50:05;;;;;;;6.78;3.97;;;24.30;86.60;;;;;;4965184;28;20046;-77
2023/05/07 11:52:30;;;;;;;9.43;6.47;;;24.10;90.40;;;;;;4958313;28;20053;-78
2023/05/07 11:54:59;;;;;;;10.50;6.95;;;24.10;88.60;;;;;;4963274;28;20478;-76
2023/05/07 11:57:25;;;;;;;12.98;11.23;;;24.10;89.20;;;;;;4969157;28;20049;-77
2023/05/07 11:59:58;;;;;;;14.60;12.65;;;24.10;88.00;;;;;;4951391;28;20047;-77
2023/05/07 12:02:24;;;;;;;9.20;7.22;;;24.00;88.00;;;;;;4969037;28;20085;-77
2023/05/07 12:04:51;;;;;;;11.65;4.05;;;23.90;88.00;;;;;;4962241;28;20510;-78
2023/05/07 12:07:18;;;;;;;11.18;7.88;;;23.90;91.20;;;;;;4964297;28;20055;-79
2023/05/07 12:09:45;;;;;;;15.02;11.02;;;24.00;90.60;;;;;;4950547;28;20058;-77
2023/05/07 12:12:11;;;;;;;11.40;6.47;;;24.10;86.40;;;;;;4955988;28;20134;-78
2023/05/07 12:14:41;;;;;;;11.50;7.57;;;24.10;89.30;;;;;;4964621;28;20129;-77
2023/05/07 12:17:11;;;;;;;13.60;11.48;;;24.10;87.80;;;;;;4954957;28;20028;-76
2023/05/07 12:19:37;;;;;;;12.50;8.48;;;24.10;84.30;;;;;;4959253;28;20572;-78
2023/05/07 12:22:04;;;;;;;16.08;9.05;;;24.10;84.70;;;;;;4955291;28;20564;-76
2023/05/07 12:25:02;;;;;;;9.10;4.07;;;23.90;87.70;;;;;;4956625;28;20110;-77
2023/05/07 12:27:28;;;;;;;10.15;4.82;;;23.90;90.50;;;;;;4962101;28;20082;-77
2023/05/07 12:29:54;;;;;;;10.15;6.45;;;24.00;90.70;;;;;;4958998;28;20050;-76